Poplar Bluff, MO

11:02 PM CDT on July 28, 2016 (GMT -0500)
Poplar Bluff Municipal | | Change Station

Elev 328 ft 36.77 °N, 90.32 °W | Updated 9 minutes ago

Partly Cloudy
Partly Cloudy
75 °F
Feels Like 75 °F
N
6
Wind Variable Wind from South

Today
High -- | Low -- °F
--% Chance of Precip.
Yesterday
High -- | Low -- °F
Precip. -- in
Pressure 29.89 in
Visibility 10.0 miles
Clouds Few 3000 ft
Dew Point 71 °F
Humidity 87%
Rainfall 0.80 in
Snow Depth Not available.
6:04 AM 8:10 PM
Waning Crescent, 26% visible
METAR KPOF 290353Z AUTO 17005KT 10SM FEW030 24/22 A2991 RMK AO2 SLP122 T02390217 TSNO
Pressure 29.89 in
Visibility 10.0 miles
Clouds Few 3000 ft
Dew Point 71 °F
Humidity 87%
Rainfall 0.80 in
Snow Depth Not available.
6:04 AM 8:10 PM
Waning Crescent, 26% visible
METAR KPOF 290353Z AUTO 17005KT 10SM FEW030 24/22 A2991 RMK AO2 SLP122 T02390217 TSNO

10-Day Weather Forecast

Almanac

Astronomy

Jul. 28, 2016 Rise Set
Actual Time
Civil Twilight
Nautical Twilight
Astronomical Twilight
Moon
Length of Visible Light
Length of Day
Tomorrow will be .
, % of the Moon is Illuminated

Today's Extremes

State Highs State Lows

Community

WunderPhotos

Upload Photos

1,928,292 photos uploaded!

WunderBlog® & News

Nearby

Air Quality

  Air Quality AQ Index Pollutant
Not available.

Snow Depth

Station Depth Elevation

Earthquake Activity

City Distance Mag. Time & Date
Minimum magnitude displayed is 2.5.

Coastal Water Temperatures

Place Temperature

Stations

Nearby Weather Stations

Station Location Temp. Windchill Dew Point Humidity Wind Precip. Elev Updated Type
                   

Watches & Warnings

There are currently no watches in effect.